Friendship, Mississippi
Current Conditions -  °F | °C
As of 4:35 PM on Sunday 23 Nov 2014 (Local Time) from K1R7 Reporting Station
Clear Clear  
Wind Chill: 72°   Ceiling: Unl
Heat Index: 72°   Visibility: 10mi
Dew Point: 57°   Wind: 9mph
Humidity: 60%   Direction: 190°S
Pressure: 29.58"   Gusts: 20mph
Location:  31.5898°N, 90.4722°W
Report Text: K1R7 232235Z AUTO 19008G17KT 10SM CLR 22/14 A2958 RMK AO2
Loading
Personal Weather Stations






























Interactive Weather Map New forecast layout! Learn more

10-Day Weather Forecast

Advertisements
Track Severe Weather on mobile